Time;durP1;ratioP1;P1;durP2;ratioP2;P2;SDS_P1;SDS_P2;PMS_P1;PMS_P2;Temp;Humidity;BMP_temperature;BMP_pressure;BME280_temperature;BME280_humidity;BME280_pressure;Samples;Min_cycle;Max_cycle;Signal;HPM_P1;HPM_P2
2022/06/02 00:01:29;;;;;;;2.07;1.80;;;;;;;12.93;88.99;101098.44;5055823;28;20458;-76
2022/06/02 00:04:00;;;;;;;3.17;1.80;;;;;;;12.96;89.44;101105.97;5055948;28;20462;-76
2022/06/02 00:06:41;;;;;;;3.60;2.27;;;;;;;12.97;88.94;101104.84;5055837;28;20457;-76
2022/06/02 00:09:20;;;;;;;4.17;1.83;;;;;;;12.97;88.79;101113.84;5055489;28;20904;-76
2022/06/02 00:11:58;;;;;;;3.50;2.50;;;;;;;13.01;87.56;101122.97;5055620;28;20490;-76
2022/06/02 00:14:30;;;;;;;3.63;2.57;;;;;;;12.98;87.96;101114.66;5055735;28;20415;-76
2022/06/02 00:17:01;;;;;;;3.03;2.37;;;;;;;12.94;87.80;101111.72;5055391;28;20908;-76
2022/06/02 00:19:41;;;;;;;2.37;1.87;;;;;;;12.88;87.56;101111.03;5055602;28;20430;-76
2022/06/02 00:22:15;;;;;;;6.00;1.97;;;;;;;12.87;87.95;101105.88;5055184;28;20996;-76
2022/06/02 00:24:51;;;;;;;4.03;1.90;;;;;;;12.90;88.15;101110.72;5055225;28;20931;-76
2022/06/02 00:27:27;;;;;;;3.37;2.17;;;;;;;12.88;88.97;101112.91;5055446;28;20430;-76
2022/06/02 00:30:06;;;;;;;2.23;1.70;;;;;;;12.84;88.88;101107.31;5055422;28;20437;-76
2022/06/02 00:32:42;;;;;;;2.67;2.27;;;;;;;12.84;89.27;101111.94;5055280;28;20512;-75
2022/06/02 00:35:23;;;;;;;2.30;1.77;;;;;;;12.88;89.62;101112.91;5055338;28;20415;-76
2022/06/02 00:37:56;;;;;;;2.30;1.57;;;;;;;12.90;89.37;101109.91;5055576;28;20807;-76
2022/06/02 00:40:26;;;;;;;2.87;2.17;;;;;;;12.87;89.02;101112.13;5055883;28;20841;-77
2022/06/02 00:43:00;;;;;;;2.60;1.90;;;;;;;12.83;89.47;101116.56;5055283;28;20454;-71
2022/06/02 00:45:27;;;;;;;1.97;1.57;;;;;;;12.84;88.31;101115.47;5055146;28;20433;-72
2022/06/02 00:48:07;;;;;;;2.43;1.80;;;;;;;12.84;88.70;101117.38;5055142;28;20446;-76
2022/06/02 00:50:46;;;;;;;2.63;2.13;;;;;;;12.81;89.00;101123.41;5056364;28;20854;-77
2022/06/02 00:53:21;;;;;;;2.30;1.80;;;;;;;12.81;88.48;101126.94;5055574;28;20485;-77
2022/06/02 00:58:59;;;;;;;3.10;1.83;;;;;;;12.84;89.42;101133.69;5058570;28;20433;-78
2022/06/02 01:01:29;;;;;;;2.60;2.30;;;;;;;12.81;88.76;101135.09;5058496;28;20466;-78
2022/06/02 01:03:57;;;;;;;2.60;1.90;;;;;;;12.79;89.27;101131.88;5058101;28;20430;-78
2022/06/02 01:06:38;;;;;;;2.47;2.00;;;;;;;12.84;89.89;101133.69;5058885;28;20442;-78
2022/06/02 01:09:37;;;;;;;4.20;2.70;;;;;;;12.83;90.15;101149.19;5057917;28;20427;-78
2022/06/02 01:12:14;;;;;;;2.40;1.73;;;;;;;12.80;90.14;101149.00;5057536;28;20481;-78
2022/06/02 01:14:59;;;;;;;1.97;1.50;;;;;;;12.71;89.90;101150.81;5058550;28;20431;-78
2022/06/02 01:17:38;;;;;;;2.80;2.07;;;;;;;12.63;89.51;101141.44;5056789;28;20909;-78
2022/06/02 01:20:19;;;;;;;3.60;1.93;;;;;;;12.57;89.35;101156.19;5057577;28;20445;-78
2022/06/02 01:23:19;;;;;;;2.10;1.80;;;;;;;12.49;89.86;101149.56;5057233;28;20453;-78
2022/06/02 01:26:29;;;;;;;2.57;2.30;;;;;;;12.41;90.44;101157.59;5057187;28;20435;-78
2022/06/02 01:29:03;;;;;;;3.60;1.97;;;;;;;12.30;92.02;101155.06;4975439;28;20457;-78
2022/06/02 01:31:44;;;;;;;2.93;2.20;;;;;;;12.24;90.85;101158.16;4975664;28;20505;-78
2022/06/02 01:34:22;;;;;;;2.97;2.40;;;;;;;12.20;91.14;101155.22;5022608;28;20482;-78
2022/06/02 01:36:59;;;;;;;2.30;2.10;;;;;;;12.14;90.89;101153.72;5056700;28;20436;-78
2022/06/02 01:39:46;;;;;;;4.50;2.40;;;;;;;12.12;90.98;101161.34;5056843;28;20433;-78
2022/06/02 01:42:23;;;;;;;3.13;2.27;;;;;;;12.08;91.30;101158.41;5040108;28;20520;-78
2022/06/02 01:44:58;;;;;;;4.27;2.30;;;;;;;12.01;91.46;101159.91;5056482;28;20453;-77
2022/06/02 01:47:33;;;;;;;2.40;1.90;;;;;;;11.96;92.30;101158.09;5055927;28;20524;-78
2022/06/02 01:50:13;;;;;;;2.43;1.80;;;;;;;11.93;92.38;101160.56;5055599;28;20457;-77
2022/06/02 01:52:45;;;;;;;2.73;1.70;;;;;;;11.88;92.97;101166.09;5055719;28;20525;-78
2022/06/02 01:55:33;;;;;;;2.87;2.17;;;;;;;11.78;93.65;101162.41;5055850;28;20904;-78
2022/06/02 01:58:11;;;;;;;3.20;2.17;;;;;;;11.76;93.08;101164.59;5055620;28;20545;-77
2022/06/02 02:00:38;;;;;;;2.37;1.60;;;;;;;11.76;93.00;101169.22;5055560;28;20426;-77
2022/06/02 02:03:22;;;;;;;4.77;2.20;;;;;;;11.74;91.82;101172.22;5055618;28;20454;-78
2022/06/02 02:06:04;;;;;;;2.07;1.50;;;;;;;11.66;92.67;101183.75;5054945;28;20839;-78
2022/06/02 02:09:06;;;;;;;3.40;1.70;;;;;;;11.59;92.95;101164.28;5055080;28;20466;-77
2022/06/02 02:11:43;;;;;;;2.00;1.30;;;;;;;11.53;93.39;101179.06;5053865;28;20477;-76
2022/06/02 02:14:22;;;;;;;1.77;1.30;;;;;;;11.50;94.18;101174.19;5053450;28;20466;-76
2022/06/02 02:16:52;;;;;;;6.20;2.20;;;;;;;11.48;94.13;101179.13;5053471;28;20434;-76
2022/06/02 02:19:40;;;;;;;1.83;1.63;;;;;;;11.48;94.26;101189.97;5053363;28;20434;-76
2022/06/02 02:22:16;;;;;;;2.60;1.90;;;;;;;11.51;94.00;101186.66;5053456;28;20458;-76
2022/06/02 02:25:09;;;;;;;1.97;1.30;;;;;;;11.52;94.14;101191.00;5053541;28;20426;-76
2022/06/02 02:30:24;;;;;;;2.97;2.10;;;;;;;11.39;94.28;101192.53;5052256;28;20531;-77
2022/06/02 02:32:58;;;;;;;2.07;1.80;;;;;;;11.43;93.73;101179.19;5053174;28;20486;-76
2022/06/02 02:35:35;;;;;;;2.70;1.87;;;;;;;11.44;93.52;101191.66;5053483;28;20426;-78
2022/06/02 02:38:06;;;;;;;3.80;2.07;;;;;;;11.42;92.14;101191.13;5053235;28;20418;-76
2022/06/02 02:40:40;;;;;;;2.50;1.63;;;;;;;11.37;92.02;101189.28;5053155;28;20434;-76
2022/06/02 02:43:10;;;;;;;1.70;1.40;;;;;;;11.29;92.35;101196.19;5053133;28;20470;-76
2022/06/02 02:45:46;;;;;;;1.87;1.27;;;;;;;11.24;92.24;101195.41;5053143;28;20473;-76
2022/06/02 02:48:23;;;;;;;2.63;1.70;;;;;;;11.24;92.07;101195.41;5053146;28;20434;-76
2022/06/02 02:50:56;;;;;;;2.50;1.70;;;;;;;11.22;93.02;101200.34;5053110;28;20438;-75
2022/06/02 02:53:30;;;;;;;1.67;1.27;;;;;;;11.22;93.40;101192.19;5052978;28;20474;-75
2022/06/02 02:56:02;;;;;;;1.93;1.10;;;;;;;11.28;94.33;101197.25;5053107;28;20422;-76
2022/06/02 02:58:44;;;;;;;2.83;1.83;;;;;;;11.32;94.17;101203.72;5053159;28;20435;-76
2022/06/02 03:01:16;;;;;;;2.00;1.37;;;;;;;11.28;94.47;101199.97;5052903;28;20426;-76
2022/06/02 03:03:49;;;;;;;1.47;1.27;;;;;;;11.20;95.20;101194.38;5052962;28;20422;-76
2022/06/02 03:06:26;;;;;;;1.60;1.20;;;;;;;11.20;95.17;101205.22;5053072;28;20442;-77
2022/06/02 03:09:02;;;;;;;1.83;1.63;;;;;;;11.18;94.41;101202.81;5052995;28;20526;-76
2022/06/02 03:11:56;;;;;;;3.37;2.00;;;;;;;11.11;95.12;101208.59;5052854;28;20523;-76
2022/06/02 03:14:49;;;;;;;1.63;1.40;;;;;;;11.15;95.20;101219.66;5052866;28;20476;-76
2022/06/02 03:17:26;;;;;;;4.40;1.43;;;;;;;11.22;94.38;101220.13;5052567;28;20431;-76
2022/06/02 03:20:02;;;;;;;2.60;1.60;;;;;;;11.20;94.25;101221.50;5052424;28;20900;-76
2022/06/02 03:22:45;;;;;;;3.33;2.17;;;;;;;11.16;94.83;101232.13;5052726;28;20457;-76
2022/06/02 03:25:17;;;;;;;2.43;1.57;;;;;;;11.23;94.90;101237.19;5053170;28;20466;-75
2022/06/02 03:27:55;;;;;;;3.50;2.00;;;;;;;11.23;94.48;101243.44;5055080;28;20431;-75
2022/06/02 03:30:24;;;;;;;3.17;2.10;;;;;;;11.25;94.44;101243.16;5056448;28;20437;-76
2022/06/02 03:33:05;;;;;;;1.93;1.40;;;;;;;11.24;94.60;101249.66;5056361;28;20490;-76
2022/06/02 03:35:42;;;;;;;2.57;2.00;;;;;;;11.26;94.21;101253.72;5056473;28;20433;-76
2022/06/02 03:38:25;;;;;;;1.87;1.10;;;;;;;11.25;93.48;101252.09;5056636;28;20434;-76
2022/06/02 03:41:11;;;;;;;2.83;1.63;;;;;;;11.24;94.55;101255.06;5056385;28;20430;-76
2022/06/02 03:43:47;;;;;;;3.03;1.60;;;;;;;11.28;94.66;101254.22;5056317;28;20476;-72
2022/06/02 03:46:28;;;;;;;2.47;1.80;;;;;;;11.27;94.71;101263.44;5055978;28;20456;-75
2022/06/02 03:49:15;;;;;;;2.83;1.50;;;;;;;11.35;93.52;101268.25;5056195;28;20438;-75
2022/06/02 03:51:47;;;;;;;2.40;1.43;;;;;;;11.36;92.51;101269.84;5055995;28;20865;-75
2022/06/02 03:54:44;;;;;;;3.07;1.30;;;;;;;11.38;92.62;101269.59;5055805;28;21025;-74
2022/06/02 03:57:25;;;;;;;3.23;2.10;;;;;;;11.40;92.40;101269.28;5056065;28;20418;-74
2022/06/02 04:00:09;;;;;;;6.47;2.20;;;;;;;11.44;92.55;101271.13;5056021;28;20426;-75
2022/06/02 04:02:43;;;;;;;1.87;1.53;;;;;;;11.48;93.00;101265.94;5055644;28;20874;-75
2022/06/02 04:05:20;;;;;;;5.40;1.97;;;;;;;11.53;93.53;101274.81;5055893;28;20422;-75
2022/06/02 04:08:03;;;;;;;2.40;1.80;;;;;;;11.60;91.94;101275.28;5055924;28;20438;-75
2022/06/02 04:10:37;;;;;;;2.77;1.50;;;;;;;11.66;92.05;101273.28;5055823;28;20427;-75
2022/06/02 04:16:28;;;;;;;4.57;2.67;;;;;;;11.73;93.24;101284.63;5055561;28;20402;-75
2022/06/02 04:22:13;;;;;;;1.53;1.27;;;;;;;11.77;90.55;101291.03;5055458;28;20548;-74
2022/06/02 04:24:50;;;;;;;3.30;2.13;;;;;;;11.80;92.03;101295.09;5055824;28;20434;-76
2022/06/02 04:27:23;;;;;;;2.23;1.40;;;;;;;11.80;91.49;101303.25;5055598;28;20414;-75
2022/06/02 04:30:02;;;;;;;3.10;1.60;;;;;;;11.82;91.32;101301.91;5055951;28;20555;-78
2022/06/02 04:32:40;;;;;;;1.33;1.20;;;;;;;11.85;90.64;101311.34;5055524;28;20470;-76
2022/06/02 04:35:18;;;;;;;2.07;1.43;;;;;;;11.89;91.41;101303.44;5055247;28;20838;-76
2022/06/02 04:37:54;;;;;;;2.63;1.73;;;;;;;11.89;91.83;101315.09;5054030;28;20798;-76
2022/06/02 04:40:34;;;;;;;5.07;2.50;;;;;;;11.93;91.54;101307.19;5054742;28;20426;-76
2022/06/02 04:43:11;;;;;;;1.90;1.40;;;;;;;11.93;91.00;101309.91;5054887;28;20454;-76
2022/06/02 04:45:48;;;;;;;3.63;2.00;;;;;;;11.95;91.48;101311.19;5054851;28;20437;-76
2022/06/02 04:48:21;;;;;;;2.60;1.70;;;;;;;11.99;91.66;101303.28;5054958;28;20430;-76
2022/06/02 04:50:58;;;;;;;2.20;1.57;;;;;;;12.11;91.24;101306.38;5054566;28;20904;-76
2022/06/02 04:53:30;;;;;;;2.80;2.03;;;;;;;12.16;91.63;101319.06;5054464;28;20885;-76
2022/06/02 04:56:08;;;;;;;2.20;1.73;;;;;;;12.14;91.03;101315.84;5054664;28;20822;-77
2022/06/02 04:58:44;;;;;;;2.33;1.63;;;;;;;12.19;91.25;101322.03;5055061;28;20438;-75
2022/06/02 05:01:24;;;;;;;2.30;1.90;;;;;;;12.30;91.08;101320.75;5054500;28;20419;-75
2022/06/02 05:04:02;;;;;;;1.97;1.53;;;;;;;12.36;90.00;101330.47;5054841;28;20422;-76
2022/06/02 05:06:37;;;;;;;3.50;1.80;;;;;;;12.44;90.04;101325.44;5054811;28;20430;-76
2022/06/02 05:09:12;;;;;;;3.60;2.00;;;;;;;12.44;90.26;101329.00;5054709;28;20426;-76
2022/06/02 05:11:48;;;;;;;4.07;2.03;;;;;;;12.46;90.13;101334.13;5054610;28;20496;-76
2022/06/02 05:14:24;;;;;;;3.10;2.20;;;;;;;12.47;89.85;101324.88;5054570;28;20474;-76
2022/06/02 05:17:02;;;;;;;2.20;1.60;;;;;;;12.53;89.49;101329.13;5054587;28;20773;-76
2022/06/02 05:20:00;;;;;;;4.23;2.70;;;;;;;12.40;90.06;101349.72;5054501;28;20433;-75
2022/06/02 05:22:55;;;;;;;3.50;2.47;;;;;;;12.34;90.52;101348.94;5054155;28;20829;-76
2022/06/02 05:25:43;;;;;;;3.37;2.40;;;;;;;12.31;90.90;101344.13;5054345;28;20426;-74
2022/06/02 05:28:40;;;;;;;7.53;2.47;;;;;;;12.28;91.51;101354.75;5054514;28;20433;-75
2022/06/02 05:31:32;;;;;;;2.70;1.90;;;;;;;12.10;92.35;101359.09;5054150;28;20488;-75
2022/06/02 05:34:26;;;;;;;3.53;2.10;;;;;;;12.15;92.68;101353.56;5053834;28;20991;-75
2022/06/02 05:37:11;;;;;;;3.90;2.67;;;;;;;12.25;92.63;101372.44;5046038;28;20975;-75
2022/06/02 05:39:47;;;;;;;3.87;2.73;;;;;;;12.27;92.55;101370.25;5053989;28;20422;-75
2022/06/02 05:42:28;;;;;;;6.37;3.97;;;;;;;12.28;92.25;101366.44;5053711;28;21003;-75
2022/06/02 05:45:14;;;;;;;3.73;2.60;;;;;;;12.38;92.47;101371.72;5053829;28;20521;-75
2022/06/02 05:48:02;;;;;;;3.90;2.27;;;;;;;12.53;92.59;101384.28;5053859;28;20430;-75
2022/06/02 05:50:37;;;;;;;6.63;3.00;;;;;;;12.63;90.98;101380.59;5053802;28;20426;-79
2022/06/02 05:53:15;;;;;;;6.20;4.00;;;;;;;12.74;90.78;101384.78;5053487;28;20512;-77
2022/06/02 05:55:58;;;;;;;3.70;3.00;;;;;;;12.85;90.38;101390.88;5054023;28;20422;-77
2022/06/02 05:58:55;;;;;;;5.17;3.53;;;;;;;12.93;89.28;101392.13;5053975;28;20423;-77
2022/06/02 06:01:39;;;;;;;5.27;3.23;;;;;;;12.99;89.74;101399.06;5053824;28;20462;-77
2022/06/02 06:04:39;;;;;;;4.90;3.90;;;;;;;12.91;89.93;101394.31;5054411;28;20437;-77
2022/06/02 06:07:14;;;;;;;5.10;2.93;;;;;;;12.97;89.56;101404.00;5054047;28;20435;-76
2022/06/02 06:09:58;;;;;;;7.63;3.83;;;;;;;13.03;89.37;101392.75;5053504;28;20803;-76
2022/06/02 06:12:48;;;;;;;3.27;2.97;;;;;;;13.08;89.70;101400.81;5053478;28;20485;-76
2022/06/02 06:15:27;;;;;;;5.40;3.23;;;;;;;13.18;89.50;101408.00;5053429;28;20467;-76
2022/06/02 06:18:00;;;;;;;4.50;3.20;;;;;;;13.21;89.00;101412.03;5053591;28;20502;-76
2022/06/02 06:20:47;;;;;;;4.47;3.60;;;;;;;13.23;89.35;101404.41;5053538;28;20431;-71
2022/06/02 06:23:50;;;;;;;3.77;2.93;;;;;;;13.44;89.53;101402.94;5054078;28;20850;-78
2022/06/02 06:26:31;;;;;;;8.30;3.57;;;;;;;13.71;88.59;101413.06;5034966;28;20457;-78
2022/06/02 06:29:13;;;;;;;4.67;3.30;;;;;;;13.96;85.25;101409.03;5055592;28;20437;-78
2022/06/02 06:31:52;;;;;;;6.67;3.73;;;;;;;14.04;85.34;101421.94;5054416;28;20466;-77
2022/06/02 06:34:28;;;;;;;6.83;3.70;;;;;;;13.93;84.95;101419.72;5054638;28;20477;-77
2022/06/02 06:37:14;;;;;;;7.33;4.23;;;;;;;13.83;85.29;101423.47;5054090;28;20430;-77
2022/06/02 06:39:56;;;;;;;5.97;3.93;;;;;;;13.98;84.71;101435.97;5053749;28;20426;-76
2022/06/02 06:42:39;;;;;;;7.63;3.70;;;;;;;14.12;85.11;101434.88;5053297;28;20473;-74
2022/06/02 06:45:15;;;;;;;4.40;3.07;;;;;;;14.22;83.93;101436.56;5053157;28;20425;-72
2022/06/02 06:47:45;;;;;;;4.93;2.70;;;;;;;14.25;84.15;101430.50;5053185;28;20422;-76
2022/06/02 06:50:19;;;;;;;6.03;3.17;;;;;;;14.42;82.77;101437.22;5052700;28;20955;-76
2022/06/02 06:53:12;;;;;;;5.93;3.87;;;;;;;14.66;82.44;101443.28;5052701;28;20465;-75
2022/06/02 06:55:48;;;;;;;5.80;3.70;;;;;;;14.84;81.05;101445.03;5049460;28;20564;-76
2022/06/02 06:58:25;;;;;;;2.70;2.17;;;;;;;14.84;80.89;101441.50;5054464;28;20430;-76
2022/06/02 07:00:59;;;;;;;4.30;2.67;;;;;;;14.97;81.35;101453.50;5053135;28;20437;-76
2022/06/02 07:03:38;;;;;;;3.03;2.50;;;;;;;14.95;79.88;101453.78;5056930;28;20483;-76
2022/06/02 07:06:12;;;;;;;4.70;3.43;;;;;;;14.88;80.36;101459.69;5057053;28;20426;-76
2022/06/02 07:08:47;;;;;;;2.27;1.87;;;;;;;14.79;80.86;101464.25;5057004;28;20426;-76
2022/06/02 07:14:13;;;;;;;4.43;2.60;;;;;;;14.74;80.58;101469.00;5056996;28;20978;-75
2022/06/02 07:16:47;;;;;;;6.00;3.37;;;;;;;14.80;80.54;101468.59;5057117;28;20426;-75
2022/06/02 07:19:22;;;;;;;4.87;3.20;;;;;;;14.77;79.90;101461.00;5056758;28;20426;-75
2022/06/02 07:21:53;;;;;;;7.27;2.80;;;;;;;14.91;80.48;101468.34;5056676;28;20461;-73
2022/06/02 07:24:35;;;;;;;3.07;2.50;;;;;;;14.80;80.79;101474.03;5056428;28;20931;-75
2022/06/02 07:27:11;;;;;;;4.93;2.77;;;;;;;14.91;79.32;101466.41;5056279;28;20809;-74
2022/06/02 07:29:47;;;;;;;3.20;2.07;;;;;;;14.96;80.43;101462.75;5056966;28;20430;-76
2022/06/02 07:32:47;;;;;;;2.97;2.60;;;;;;;14.94;79.27;101482.19;5056521;28;20470;-74
2022/06/02 07:35:42;;;;;;;3.10;2.80;;;;;;;14.96;78.19;101481.84;5056376;28;20488;-75
2022/06/02 07:38:19;;;;;;;3.03;2.10;;;;;;;14.95;78.07;101485.72;5023346;28;20435;-74
2022/06/02 07:41:15;;;;;;;5.00;2.40;;;;;;;14.89;78.20;101480.38;5056467;28;20453;-74
2022/06/02 07:44:05;;;;;;;4.63;2.90;;;;;;;14.88;76.44;101484.22;5056325;28;20442;-75
2022/06/02 07:46:49;;;;;;;4.10;2.93;;;;;;;14.97;77.07;101472.59;5056283;28;20434;-75
2022/06/02 07:49:38;;;;;;;3.43;2.37;;;;;;;14.97;74.58;101480.78;5056232;28;20433;-74
2022/06/02 07:52:14;;;;;;;3.20;2.40;;;;;;;14.84;75.17;101487.88;5055857;28;20485;-75
2022/06/02 07:54:50;;;;;;;3.30;2.50;;;;;;;14.99;73.92;101489.44;5056101;28;20474;-75
2022/06/02 07:57:30;;;;;;;3.80;2.50;;;;;;;15.29;70.36;101483.25;5056076;28;20430;-72
2022/06/02 08:00:05;;;;;;;2.80;1.80;;;;;;;15.51;69.83;101492.56;5056060;28;20422;-74
2022/06/02 08:02:46;;;;;;;2.20;1.73;;;;;;;15.67;71.46;101499.28;5055916;28;20468;-73
2022/06/02 08:05:22;;;;;;;2.80;1.83;;;;;;;15.56;67.72;101497.88;5055959;28;20525;-73
2022/06/02 08:07:54;;;;;;;2.57;1.60;;;;;;;15.51;67.77;101503.47;5055605;28;20904;-73
2022/06/02 08:10:30;;;;;;;2.40;1.47;;;;;;;15.47;69.22;101499.75;5055904;28;20454;-74
2022/06/02 08:13:03;;;;;;;2.60;1.53;;;;;;;15.55;68.05;101504.47;5055608;28;20824;-74
2022/06/02 08:15:39;;;;;;;1.17;1.07;;;;;;;15.69;63.79;101501.69;5055687;28;20493;-73
2022/06/02 08:18:21;;;;;;;2.70;1.30;;;;;;;15.72;60.25;101501.88;5055701;28;20438;-73
2022/06/02 08:20:56;;;;;;;6.27;1.90;;;;;;;15.84;59.91;101514.94;5055719;28;20465;-71
2022/06/02 08:23:46;;;;;;;2.00;1.23;;;;;;;15.94;60.38;101502.91;5055599;28;20430;-71
2022/06/02 08:26:16;;;;;;;9.30;1.73;;;;;;;16.03;60.52;101509.25;5055523;28;20438;-72
2022/06/02 08:29:03;;;;;;;2.43;1.17;;;;;;;15.99;59.92;101522.75;5055500;28;20442;-71
2022/06/02 08:31:49;;;;;;;1.30;0.90;;;;;;;15.96;59.54;101522.56;5055381;28;20504;-71
2022/06/02 08:34:22;;;;;;;1.23;0.77;;;;;;;15.96;59.84;101522.56;5054892;28;20991;-71
2022/06/02 08:37:00;;;;;;;5.70;1.10;;;;;;;15.96;61.00;101534.28;5055278;28;20434;-71
2022/06/02 08:39:44;;;;;;;2.60;1.10;;;;;;;15.87;62.49;101530.72;5055253;28;20435;-71
2022/06/02 08:42:50;;;;;;;0.80;0.73;;;;;;;15.96;60.85;101528.81;5054840;28;20975;-71
2022/06/02 08:45:35;;;;;;;1.23;1.00;;;;;;;16.18;58.11;101533.44;4974032;28;20449;-72
2022/06/02 08:48:25;;;;;;;3.23;1.47;;;;;;;16.17;58.44;101529.09;4974050;28;20449;-72
2022/06/02 08:51:28;;;;;;;1.60;1.03;;;;;;;16.33;59.74;101532.19;5031984;28;20784;-72
2022/06/02 08:54:25;;;;;;;2.43;1.30;;;;;;;16.42;56.87;101530.28;5054918;28;20433;-73
2022/06/02 08:57:07;;;;;;;1.60;1.20;;;;;;;16.37;58.37;101530.44;5054962;28;20430;-70
2022/06/02 09:00:13;;;;;;;1.90;0.87;;;;;;;16.76;59.06;101526.84;5054804;28;20418;-72
2022/06/02 09:03:15;;;;;;;1.47;1.17;;;;;;;16.90;57.22;101529.44;5028480;28;20486;-72
2022/06/02 09:06:04;;;;;;;1.80;1.40;;;;;;;16.78;58.21;101526.56;5054732;28;20430;-72
2022/06/02 09:09:05;;;;;;;1.90;1.37;;;;;;;16.52;58.36;101534.69;5054766;28;20423;-72
2022/06/02 09:11:48;;;;;;;1.10;0.90;;;;;;;16.45;57.81;101535.13;5054625;28;20462;-73
2022/06/02 09:15:02;;;;;;;2.03;1.07;;;;;;;16.66;58.80;101535.34;5054290;28;20920;-73
2022/06/02 09:17:35;;;;;;;1.77;1.23;;;;;;;16.86;57.91;101525.75;5054574;28;20453;-74
2022/06/02 09:20:37;;;;;;;1.77;1.27;;;;;;;17.14;55.05;101529.81;5054528;28;20423;-75
2022/06/02 09:23:20;;;;;;;1.70;1.37;;;;;;;17.36;54.99;101533.50;5054090;28;20466;-73
2022/06/02 09:26:13;;;;;;;2.07;1.07;;;;;;;17.48;55.38;101535.56;5053873;28;20476;-73
2022/06/02 09:29:24;;;;;;;1.93;1.27;;;;;;;17.54;57.58;101518.66;5054108;28;20415;-74
2022/06/02 09:32:19;;;;;;;1.73;1.00;;;;;;;17.34;52.30;101539.28;5016703;28;20485;-74
2022/06/02 09:34:59;;;;;;;1.23;1.00;;;;;;;17.18;53.95;101540.09;5054150;28;20875;-74
2022/06/02 09:37:45;;;;;;;1.17;1.00;;;;;;;17.14;54.51;101539.94;5054206;28;20859;-74
2022/06/02 09:40:32;;;;;;;1.50;1.00;;;;;;;17.33;54.48;101534.13;5054135;28;20422;-74
2022/06/02 09:43:32;;;;;;;1.50;0.87;;;;;;;17.62;53.50;101538.94;5053729;28;20469;-75
2022/06/02 09:46:25;;;;;;;1.10;0.70;;;;;;;17.94;52.21;101539.53;5054059;28;20426;-74
2022/06/02 09:49:07;;;;;;;2.00;1.30;;;;;;;18.02;52.17;101546.94;5013785;28;20449;-74
2022/06/02 09:51:51;;;;;;;1.13;0.90;;;;;;;17.97;51.86;101547.09;5053680;28;20478;-74
2022/06/02 09:54:34;;;;;;;1.33;1.03;;;;;;;18.02;52.48;101542.25;5053813;28;20784;-74
2022/06/02 09:57:56;;;;;;;2.07;1.37;;;;;;;18.20;52.60;101542.19;5053711;28;20423;-74
2022/06/02 10:00:43;;;;;;;1.37;0.93;;;;;;;18.23;51.09;101552.50;5053501;28;20537;-74
2022/06/02 10:03:25;;;;;;;1.43;0.97;;;;;;;18.25;51.83;101550.22;5053724;28;20458;-74
2022/06/02 10:06:12;;;;;;;2.50;1.23;;;;;;;18.16;52.18;101547.53;5053728;28;20457;-74
2022/06/02 10:08:53;;;;;;;1.43;0.80;;;;;;;17.93;51.63;101559.84;5053712;28;20458;-74
2022/06/02 10:11:34;;;;;;;6.20;1.00;;;;;;;17.77;52.44;101556.84;5053493;28;20473;-74
2022/06/02 10:14:30;;;;;;;1.20;1.00;;;;;;;17.72;53.29;101546.81;5053673;28;20464;-73
2022/06/02 10:17:35;;;;;;;1.87;1.33;;;;;;;17.80;51.17;101554.25;5053482;28;20426;-74
2022/06/02 10:20:23;;;;;;;1.60;1.00;;;;;;;18.19;52.82;101552.34;5053479;28;20440;-73
2022/06/02 10:23:00;;;;;;;1.93;0.93;;;;;;;18.50;49.68;101553.97;5053366;28;20466;-73
2022/06/02 10:26:08;;;;;;;1.50;1.03;;;;;;;18.35;49.76;101566.31;5053462;28;20469;-74
2022/06/02 10:29:14;;;;;;;0.83;0.50;;;;;;;18.14;50.85;101561.53;5042275;28;20458;-75
2022/06/02 10:32:19;;;;;;;1.00;0.77;;;;;;;18.06;51.31;101567.91;5053236;28;20465;-73
2022/06/02 10:35:19;;;;;;;1.13;0.93;;;;;;;18.26;51.78;101562.81;5053140;28;20473;-73
2022/06/02 10:38:11;;;;;;;1.73;1.20;;;;;;;18.45;49.73;101573.38;5052129;28;20867;-73
2022/06/02 10:41:05;;;;;;;2.83;1.17;;;;;;;18.36;49.02;101573.41;5053175;28;20419;-73
2022/06/02 10:44:02;;;;;;;1.10;0.80;;;;;;;18.39;49.28;101568.06;5053168;28;20450;-73
2022/06/02 10:47:02;;;;;;;0.90;0.60;;;;;;;18.55;49.77;101571.06;5053214;28;20430;-73
2022/06/02 10:49:38;;;;;;;1.00;0.60;;;;;;;18.69;46.82;101573.59;5053074;28;20453;-73
2022/06/02 10:52:43;;;;;;;1.70;1.00;;;;;;;19.01;45.41;101574.84;5052755;28;20481;-73
2022/06/02 10:55:39;;;;;;;1.10;0.70;;;;;;;19.25;44.72;101582.41;5052724;28;20979;-76
2022/06/02 10:58:40;;;;;;;1.77;1.03;;;;;;;19.24;43.74;101580.81;5052746;28;20430;-72
2022/06/02 11:01:42;;;;;;;1.03;0.70;;;;;;;19.47;45.73;101585.97;5052585;28;20426;-74
2022/06/02 11:04:40;;;;;;;1.20;0.83;;;;;;;19.81;45.03;101580.16;5052930;28;20434;-76
2022/06/02 11:07:43;;;;;;;1.30;0.70;;;;;;;20.11;45.92;101580.00;5052946;28;20438;-73
2022/06/02 11:10:25;;;;;;;1.30;0.73;;;;;;;20.21;43.49;101582.31;5012568;28;20512;-73
2022/06/02 11:13:26;;;;;;;1.20;0.77;;;;;;;20.24;43.42;101583.59;5052818;28;20472;-73
2022/06/02 11:16:26;;;;;;;1.67;0.87;;;;;;;20.45;42.91;101577.97;5052882;28;20527;-73
2022/06/02 11:19:21;;;;;;;2.00;0.70;;;;;;;20.82;41.16;101589.81;5052580;28;20831;-73
2022/06/02 11:22:05;;;;;;;0.80;0.60;;;;;;;21.14;40.78;101593.53;5018958;28;20466;-73
2022/06/02 11:25:14;;;;;;;4.20;0.87;;;;;;;21.36;41.82;101582.03;5052841;28;20492;-74
2022/06/02 11:28:13;;;;;;;0.93;0.63;;;;;;;21.47;40.78;101592.53;4992869;28;20459;-73
2022/06/02 11:31:01;;;;;;;0.90;0.60;;;;;;;21.79;41.08;101576.91;4996508;28;20465;-73
2022/06/02 11:33:54;;;;;;;1.10;0.73;;;;;;;21.60;39.45;101574.78;5052725;28;20492;-73
2022/06/02 11:36:54;;;;;;;1.30;0.90;;;;;;;20.88;40.68;101585.66;5052709;28;20513;-72
2022/06/02 11:40:05;;;;;;;1.30;1.03;;;;;;;20.42;41.90;101580.28;5052712;28;20821;-73
2022/06/02 11:42:45;;;;;;;0.93;0.73;;;;;;;20.90;42.70;101577.88;4990991;28;20476;-74
2022/06/02 11:45:27;;;;;;;1.27;0.77;;;;;;;21.29;41.57;101584.53;5043265;28;20881;-73
2022/06/02 11:48:17;;;;;;;1.37;0.80;;;;;;;21.11;40.58;101574.94;5053800;28;20433;-73
2022/06/02 11:51:08;;;;;;;1.63;0.90;;;;;;;20.72;41.03;101577.31;5056084;28;20462;-73
2022/06/02 11:54:15;;;;;;;2.23;0.77;;;;;;;20.81;40.44;101575.25;5053105;28;20493;-73
2022/06/02 11:57:05;;;;;;;1.17;0.70;;;;;;;21.29;39.43;101580.97;5055691;28;20542;-73
2022/06/02 11:59:51;;;;;;;1.30;0.60;;;;;;;21.21;38.49;101573.69;5056017;28;20435;-73
2022/06/02 12:02:38;;;;;;;0.90;0.50;;;;;;;21.45;38.66;101573.59;5055980;28;20462;-73
2022/06/02 12:08:38;;;;;;;0.90;0.67;;;;;;;21.30;38.43;101575.13;5090795;27;20514;-73
2022/06/02 12:11:27;;;;;;;0.80;0.50;;;;;;;21.11;38.78;101583.19;5090401;28;20933;-73
2022/06/02 12:14:16;;;;;;;1.07;0.70;;;;;;;21.55;39.46;101578.59;5090609;28;20489;-73
2022/06/02 12:17:02;;;;;;;3.83;0.93;;;;;;;22.26;36.51;101593.50;5090656;28;20457;-73
2022/06/02 12:20:09;;;;;;;0.90;0.50;;;;;;;21.91;36.62;101580.41;5090626;28;20429;-73
2022/06/02 12:22:53;;;;;;;1.67;0.83;;;;;;;22.29;34.47;101590.06;5043193;28;20469;-72
2022/06/02 12:25:39;;;;;;;1.00;0.80;;;;;;;22.65;35.46;101579.88;5090571;28;20479;-73
2022/06/02 12:28:32;;;;;;;1.10;0.90;;;;;;;22.70;33.64;101581.56;5090573;28;20484;-73
2022/06/02 12:31:37;;;;;;;1.03;0.70;;;;;;;22.80;34.38;101584.56;5090328;28;20476;-72
2022/06/02 12:34:26;;;;;;;0.90;0.73;;;;;;;22.74;35.50;101593.50;5089990;28;20428;-72
2022/06/02 12:37:10;;;;;;;0.80;0.60;;;;;;;23.14;35.51;101582.16;5086770;28;20826;-72
2022/06/02 12:40:13;;;;;;;1.47;0.70;;;;;;;23.87;34.38;101586.03;5090314;28;20472;-75
2022/06/02 12:43:07;;;;;;;1.20;0.67;;;;;;;24.12;31.83;101603.88;5089835;28;21016;-71
2022/06/02 12:45:46;;;;;;;1.00;0.73;;;;;;;23.53;31.50;101599.56;5090139;28;20457;-72
2022/06/02 12:48:51;;;;;;;1.10;0.70;;;;;;;23.72;33.76;101606.28;5090029;28;20439;-72
2022/06/02 12:51:55;;;;;;;1.10;0.80;;;;;;;24.49;32.59;101602.56;5089834;28;20461;-72
2022/06/02 12:55:05;;;;;;;0.73;0.50;;;;;;;24.83;32.07;101597.91;5089914;28;20510;-73
2022/06/02 12:58:21;;;;;;;1.17;0.77;;;;;;;25.37;32.90;101605.81;5089956;28;20421;-73
2022/06/02 13:01:00;;;;;;;1.23;0.80;;;;;;;25.34;32.31;101589.13;5027338;28;20438;-72